Time;durP1;ratioP1;P1;durP2;ratioP2;P2;SDS_P1;SDS_P2;PMS_P1;PMS_P2;Temp;Humidity;BMP_temperature;BMP_pressure;BME280_temperature;BME280_humidity;BME280_pressure;Samples;Min_cycle;Max_cycle;Signal;HPM_P1;HPM_P2
2021/08/24 00:04:05;;;;;;;11.30;6.10;;;;;;;19.04;70.32;98903.41;233544;1199;138809;-63
2021/08/24 00:09:12;;;;;;;8.60;5.90;;;;;;;19.02;70.25;98903.30;232843;1200;138704;-63
2021/08/24 00:14:15;;;;;;;9.50;6.00;;;;;;;18.96;70.17;98905.81;234138;1198;139233;-64
2021/08/24 00:19:19;;;;;;;11.10;6.70;;;;;;;18.92;70.24;98898.67;234030;1198;138738;-62
2021/08/24 00:24:22;;;;;;;13.60;7.10;;;;;;;18.91;70.23;98895.52;234160;1198;139045;-62
2021/08/24 00:29:25;;;;;;;12.60;6.10;;;;;;;18.91;70.34;98895.70;234085;1199;138796;-63
2021/08/24 00:34:28;;;;;;;8.60;6.00;;;;;;;18.91;70.20;98900.04;234111;1198;140494;-66
2021/08/24 00:39:31;;;;;;;8.80;5.70;;;;;;;18.89;70.20;98896.55;234331;1198;138690;-64
2021/08/24 00:44:34;;;;;;;8.40;7.10;;;;;;;18.89;70.21;98897.16;234201;1198;138295;-62
2021/08/24 00:49:37;;;;;;;10.10;7.20;;;;;;;18.88;70.13;98893.66;234201;1198;139106;-62
2021/08/24 00:54:45;;;;;;;9.70;6.50;;;;;;;18.88;70.13;98896.05;234045;1199;138734;-64
2021/08/24 00:59:49;;;;;;;8.10;6.70;;;;;;;18.86;70.13;98895.48;234047;1199;139142;-64
2021/08/24 01:04:54;;;;;;;11.50;7.20;;;;;;;18.86;70.08;98908.77;233631;1199;139311;-62
2021/08/24 01:10:12;;;;;;;12.20;8.00;;;;;;;18.86;70.10;98915.59;234152;1198;139705;-61
2021/08/24 01:15:35;;;;;;;12.00;8.70;;;;;;;18.78;69.77;98910.31;234130;1198;139015;-62
2021/08/24 01:21:05;;;;;;;11.90;8.10;;;;;;;18.71;69.92;98896.05;234148;1198;138555;-62
2021/08/24 01:26:26;;;;;;;10.80;7.90;;;;;;;18.73;69.98;98899.49;234201;1198;139346;-62
2021/08/24 01:31:55;;;;;;;16.10;9.30;;;;;;;18.70;69.84;98898.88;234282;1198;138957;-64
2021/08/24 01:37:09;;;;;;;13.70;9.60;;;;;;;18.69;69.96;98895.55;234093;1198;138858;-62
2021/08/24 01:42:17;;;;;;;12.40;9.90;;;;;;;18.67;70.01;98891.88;234080;1199;138743;-60
2021/08/24 01:47:26;;;;;;;13.50;9.60;;;;;;;18.67;70.02;98886.38;234207;1199;138536;-60
2021/08/24 01:52:38;;;;;;;15.10;10.10;;;;;;;18.66;70.12;98886.95;234106;1198;139231;-62
2021/08/24 01:57:53;;;;;;;13.70;11.10;;;;;;;18.70;70.34;98880.17;234158;1199;139738;-63
2021/08/24 02:03:11;;;;;;;15.00;12.40;;;;;;;18.76;70.39;98884.48;234414;1198;139019;-62
2021/08/24 02:08:22;;;;;;;15.30;11.10;;;;;;;18.75;70.21;98893.77;234245;1198;138707;-62
2021/08/24 02:13:31;;;;;;;15.40;10.60;;;;;;;18.72;70.20;98888.45;234147;1198;139811;-62
2021/08/24 02:18:37;;;;;;;14.20;10.00;;;;;;;18.69;70.11;98883.28;234236;1198;138840;-68
2021/08/24 02:23:43;;;;;;;14.30;10.30;;;;;;;18.65;70.16;98883.47;234142;1198;138977;-66
2021/08/24 02:28:50;;;;;;;14.20;9.80;;;;;;;18.59;70.21;98875.84;234037;1199;139063;-64
2021/08/24 02:33:59;;;;;;;12.90;9.30;;;;;;;18.49;70.25;98872.67;234288;1198;138813;-66
2021/08/24 02:39:11;;;;;;;15.10;9.60;;;;;;;18.46;70.17;98866.16;234287;1198;139181;-63
2021/08/24 02:44:20;;;;;;;18.40;10.70;;;;;;;18.47;70.36;98862.15;234236;1198;139218;-64
2021/08/24 02:49:26;;;;;;;13.20;10.30;;;;;;;18.44;70.27;98859.02;234213;1195;140095;-65
2021/08/24 02:54:33;;;;;;;15.60;10.00;;;;;;;18.44;70.44;98854.48;234091;1198;139081;-66
2021/08/24 02:59:37;;;;;;;14.50;10.40;;;;;;;18.45;70.49;98853.48;233630;1198;139708;-63
2021/08/24 03:04:40;;;;;;;16.00;11.40;;;;;;;18.48;70.62;98858.42;234023;1200;139735;-65
2021/08/24 03:09:46;;;;;;;17.00;11.20;;;;;;;18.51;70.63;98864.98;234194;1199;139436;-63
2021/08/24 03:14:57;;;;;;;18.80;12.20;;;;;;;18.50;70.62;98857.18;234114;1198;139492;-63
2021/08/24 03:20:03;;;;;;;17.80;10.70;;;;;;;18.51;70.66;98848.29;234152;1198;138614;-63
2021/08/24 03:25:08;;;;;;;179.30;135.70;;;;;;;18.52;70.96;98853.67;234290;1198;140553;-64
2021/08/24 03:30:14;;;;;;;19.80;11.90;;;;;;;18.69;71.15;98860.09;234038;1198;139863;-63
2021/08/24 03:35:19;;;;;;;15.80;12.30;;;;;;;18.85;71.11;98862.73;234067;1200;140877;-64
2021/08/24 03:40:24;;;;;;;18.60;12.20;;;;;;;18.87;70.58;98869.29;233947;1198;140476;-63
2021/08/24 03:45:27;;;;;;;15.60;12.30;;;;;;;18.82;70.42;98872.88;234184;1198;139130;-66
2021/08/24 03:50:30;;;;;;;15.60;11.60;;;;;;;18.73;70.44;98879.52;234061;1200;139087;-65
2021/08/24 03:55:33;;;;;;;15.90;11.80;;;;;;;18.66;70.42;98883.80;233737;1199;139673;-64
2021/08/24 04:00:36;;;;;;;15.50;11.80;;;;;;;18.61;70.62;98887.13;234269;1198;138891;-64
2021/08/24 04:05:40;;;;;;;17.60;12.60;;;;;;;18.61;70.60;98886.11;234278;1198;139068;-64
2021/08/24 04:10:43;;;;;;;37.40;31.50;;;;;;;18.63;70.71;98887.86;234136;1198;140954;-65
2021/08/24 04:15:46;;;;;;;15.70;12.40;;;;;;;18.65;70.99;98890.65;234157;1198;139293;-64
2021/08/24 04:20:49;;;;;;;18.60;13.60;;;;;;;18.87;71.51;98890.92;234171;1198;139079;-62
2021/08/24 04:25:52;;;;;;;116.90;82.70;;;;;;;19.07;71.55;98895.20;234035;1200;138784;-64
2021/08/24 04:31:02;;;;;;;16.40;13.00;;;;;;;19.21;71.60;98895.27;233194;1199;140486;-65
2021/08/24 04:36:10;;;;;;;28.10;20.80;;;;;;;19.42;71.48;98906.12;233602;1198;139406;-67
2021/08/24 04:41:13;;;;;;;17.60;12.40;;;;;;;19.50;71.08;98907.98;234130;1198;139143;-67
2021/08/24 04:46:16;;;;;;;14.40;12.10;;;;;;;19.39;70.34;98912.13;234215;1201;139506;-67
2021/08/24 04:51:20;;;;;;;15.80;12.00;;;;;;;19.23;70.18;98916.31;234227;1196;138585;-67
2021/08/24 04:56:23;;;;;;;15.80;11.30;;;;;;;19.05;70.14;98924.36;234146;1198;138696;-66
2021/08/24 05:01:26;;;;;;;16.30;10.20;;;;;;;18.92;70.31;98933.33;234207;1198;139591;-67
2021/08/24 05:06:30;;;;;;;16.00;12.10;;;;;;;18.84;70.39;98939.33;234161;1198;141574;-64
2021/08/24 05:11:33;;;;;;;16.50;11.60;;;;;;;18.74;70.50;98944.63;234011;1201;139685;-68
2021/08/24 05:16:38;;;;;;;14.10;10.50;;;;;;;18.65;70.58;98951.80;233940;1198;139311;-63
2021/08/24 05:21:41;;;;;;;14.20;9.80;;;;;;;18.62;70.66;98953.16;234208;1198;139348;-62
2021/08/24 05:26:44;;;;;;;17.90;11.00;;;;;;;18.60;70.68;98956.78;233417;1197;140493;-62
2021/08/24 05:31:47;;;;;;;13.00;10.30;;;;;;;18.54;70.66;98964.39;233862;1199;139301;-65
2021/08/24 05:36:50;;;;;;;12.70;10.00;;;;;;;18.47;70.87;98965.60;234110;1199;138592;-63
2021/08/24 05:41:57;;;;;;;13.20;9.40;;;;;;;18.45;71.05;98970.46;234140;1198;139820;-61
2021/08/24 05:47:00;;;;;;;11.20;8.20;;;;;;;18.43;71.12;98974.20;234152;1198;140566;-63
2021/08/24 05:52:03;;;;;;;237.90;160.30;;;;;;;18.45;71.33;98977.27;234197;1198;138561;-64
2021/08/24 05:57:06;;;;;;;9.90;6.40;;;;;;;18.51;71.66;98979.89;233975;1199;139169;-64
2021/08/24 06:02:10;;;;;;;5.10;2.10;;;;;;;18.58;71.40;98987.56;233450;1198;140456;-62
2021/08/24 06:07:14;;;;;;;2.90;1.40;;;;;;;18.62;71.52;98987.89;233791;1198;138811;-64
2021/08/24 06:12:19;;;;;;;1.60;1.40;;;;;;;18.62;71.27;98992.00;233991;1198;139121;-66
2021/08/24 06:17:22;;;;;;;1.50;1.00;;;;;;;18.61;71.29;99000.03;233773;1199;138408;-64
2021/08/24 06:22:26;;;;;;;1.00;0.90;;;;;;;18.58;71.29;99002.75;233845;1198;139090;-62
2021/08/24 06:27:29;;;;;;;3.00;1.40;;;;;;;18.54;71.10;99010.40;233779;1201;139056;-63
2021/08/24 06:32:37;;;;;;;3.70;1.30;;;;;;;18.49;71.16;99012.23;234031;1198;139595;-63
2021/08/24 06:37:40;;;;;;;1.70;1.30;;;;;;;18.48;71.11;99020.63;234183;1198;138364;-64
2021/08/24 06:42:49;;;;;;;37.80;27.80;;;;;;;18.43;71.20;99020.72;234168;1198;139369;-62
2021/08/24 06:47:53;;;;;;;6.30;3.70;;;;;;;18.39;71.15;99022.33;234101;1198;140122;-67
2021/08/24 06:52:57;;;;;;;2.30;1.50;;;;;;;18.42;71.25;99025.73;234049;1198;138614;-64
2021/08/24 06:58:01;;;;;;;1.70;1.20;;;;;;;18.39;71.06;99022.48;233872;1198;138390;-67
2021/08/24 07:03:09;;;;;;;3.90;1.30;;;;;;;18.35;70.96;99026.71;233952;1198;137955;-66
2021/08/24 07:08:13;;;;;;;2.10;1.10;;;;;;;18.29;70.80;99024.96;234152;1198;139149;-64
2021/08/24 07:13:17;;;;;;;1.60;1.20;;;;;;;18.24;70.99;99023.67;233985;1196;139194;-62
2021/08/24 07:18:20;;;;;;;4.80;1.10;;;;;;;18.23;71.12;99021.08;234165;1198;139810;-62
2021/08/24 07:23:23;;;;;;;3.30;1.20;;;;;;;18.22;71.13;99023.86;233992;1199;138699;-68
2021/08/24 07:28:26;;;;;;;1.60;1.00;;;;;;;18.19;71.02;99021.75;233186;1199;138186;-64
2021/08/24 07:33:29;;;;;;;2.10;1.10;;;;;;;18.15;70.97;99026.59;234195;1198;139390;-63
2021/08/24 07:38:32;;;;;;;2.60;1.10;;;;;;;18.13;71.13;99029.71;233979;1198;138813;-62
2021/08/24 07:43:37;;;;;;;1.70;0.70;;;;;;;18.09;71.10;99041.17;234050;1191;138605;-64
2021/08/24 07:50:51;;;;;;;4.90;3.20;;;;;;;18.04;71.05;99062.69;230813;1217;636114;-67
2021/08/24 07:55:55;;;;;;;4.60;1.10;;;;;;;17.90;70.40;99072.24;232318;1204;137760;-63
2021/08/24 08:00:59;;;;;;;2.70;0.70;;;;;;;17.76;70.46;99077.84;232896;1204;137565;-61
2021/08/24 08:06:02;;;;;;;0.50;0.40;;;;;;;17.65;70.43;99082.58;233340;1202;138031;-61
2021/08/24 08:11:05;;;;;;;1.70;0.50;;;;;;;17.58;70.73;99089.41;233248;1205;139293;-62
2021/08/24 08:16:08;;;;;;;2.70;0.70;;;;;;;17.56;70.76;99099.34;233611;1204;138255;-63
2021/08/24 08:21:12;;;;;;;1.20;0.40;;;;;;;17.50;70.81;99110.14;233345;1204;137461;-62
2021/08/24 08:26:15;;;;;;;2.30;0.50;;;;;;;17.40;70.76;99112.59;233894;1200;138768;-62
2021/08/24 08:31:18;;;;;;;4.60;0.70;;;;;;;17.34;70.69;99121.21;233811;1200;139138;-62
2021/08/24 08:36:22;;;;;;;2.10;0.80;;;;;;;17.35;70.64;99124.02;233900;1198;139996;-62
2021/08/24 08:41:58;;;;;;;1.70;0.70;;;;;;;17.35;70.84;99134.59;233958;1199;138667;-61
2021/08/24 08:47:30;;;;;;;1.50;0.70;;;;;;;17.33;70.92;99151.27;234043;1200;139285;-64
2021/08/24 08:52:48;;;;;;;0.70;0.60;;;;;;;17.21;70.45;99161.42;233852;1201;139261;-63
2021/08/24 08:58:02;;;;;;;1.00;0.70;;;;;;;17.07;70.29;99171.08;234098;1201;138463;-62
2021/08/24 09:03:14;;;;;;;213.70;138.20;;;;;;;17.03;70.36;99184.48;233769;1201;138516;-62
2021/08/24 09:08:22;;;;;;;2.50;1.40;;;;;;;17.01;70.57;99188.66;234033;1201;138845;-61
2021/08/24 09:13:26;;;;;;;1.60;0.60;;;;;;;16.94;70.31;99188.54;233886;1200;140459;-62
2021/08/24 09:18:44;;;;;;;0.80;0.50;;;;;;;16.87;70.30;99191.66;233755;1200;137795;-62
2021/08/24 09:23:47;;;;;;;1.10;0.70;;;;;;;16.80;70.32;99198.88;233708;1201;139012;-63
2021/08/24 09:28:54;;;;;;;1.70;0.60;;;;;;;16.73;70.32;99201.05;233981;1201;138720;-63
2021/08/24 09:33:57;;;;;;;1.20;0.70;;;;;;;16.71;70.33;99210.90;233619;1201;138695;-61
2021/08/24 09:39:00;;;;;;;1.30;0.70;;;;;;;16.69;70.48;99219.15;233841;1201;137868;-61
2021/08/24 09:44:27;;;;;;;0.90;0.80;;;;;;;16.67;70.32;99226.10;233873;1201;138014;-63
2021/08/24 09:49:35;;;;;;;2.50;0.90;;;;;;;16.62;70.51;99227.81;233901;1200;138839;-62
2021/08/24 09:54:47;;;;;;;1.00;0.80;;;;;;;16.61;70.38;99242.60;233873;1201;138216;-63
2021/08/24 10:00:21;;;;;;;1.90;0.80;;;;;;;16.60;70.40;99239.22;233890;1201;137933;-62
2021/08/24 10:05:24;;;;;;;1.10;0.90;;;;;;;16.58;70.45;99248.71;233935;1201;137885;-63
2021/08/24 10:10:33;;;;;;;4.90;1.10;;;;;;;16.53;70.44;99248.37;233837;1201;138486;-62
2021/08/24 10:15:40;;;;;;;3.40;1.30;;;;;;;16.52;70.44;99254.02;234017;1200;138790;-62
2021/08/24 10:20:59;;;;;;;2.60;1.20;;;;;;;16.52;70.54;99257.94;233960;1199;139184;-62
2021/08/24 10:26:07;;;;;;;2.50;1.40;;;;;;;16.50;70.59;99265.14;233994;1199;138180;-62
2021/08/24 10:31:28;;;;;;;76.80;48.20;;;;;;;16.48;70.52;99265.61;233877;1199;138442;-62
2021/08/24 10:36:46;;;;;;;5.20;2.70;;;;;;;16.50;70.71;99271.17;233860;1199;138629;-64
2021/08/24 10:42:17;;;;;;;2.60;1.70;;;;;;;16.50;70.66;99277.70;233822;1201;138480;-62
2021/08/24 10:47:30;;;;;;;2.80;1.70;;;;;;;16.50;70.57;99286.99;233532;1201;137854;-61
2021/08/24 10:52:42;;;;;;;3.80;1.80;;;;;;;16.50;70.57;99292.89;233591;1198;138041;-62
2021/08/24 10:57:54;;;;;;;2.20;1.40;;;;;;;16.48;70.55;99297.92;234096;1201;137878;-62
2021/08/24 11:03:34;;;;;;;2.80;1.50;;;;;;;16.40;70.35;99309.69;233895;1201;139104;-64
2021/08/24 11:09:09;;;;;;;4.40;2.10;;;;;;;16.34;70.55;99312.27;234063;1199;138691;-64
2021/08/24 11:14:36;;;;;;;4.10;2.00;;;;;;;16.24;70.39;99309.52;233928;1201;138078;-64
2021/08/24 11:20:09;;;;;;;4.40;2.10;;;;;;;16.09;70.28;99319.12;234018;1198;138199;-62
2021/08/24 11:25:35;;;;;;;4.60;1.90;;;;;;;15.96;70.23;99320.89;233446;1196;137992;-63
2021/08/24 11:30:42;;;;;;;5.60;1.70;;;;;;;15.90;70.37;99330.73;233975;1201;139832;-63
2021/08/24 11:35:48;;;;;;;3.50;1.80;;;;;;;15.89;70.52;99337.02;233859;1200;138328;-63
2021/08/24 11:41:00;;;;;;;2.50;1.90;;;;;;;15.88;70.72;99339.45;233979;1201;139219;-64
2021/08/24 11:46:10;;;;;;;2.60;1.60;;;;;;;15.94;70.79;99345.61;234153;1199;138850;-64
2021/08/24 11:51:27;;;;;;;2.60;1.50;;;;;;;15.94;70.67;99347.22;234085;1195;138739;-63
2021/08/24 11:56:41;;;;;;;2.60;1.40;;;;;;;15.90;70.57;99347.20;233938;1201;139245;-63
2021/08/24 12:01:47;;;;;;;3.10;1.80;;;;;;;15.87;70.73;99356.53;233984;1200;138542;-62
2021/08/24 12:06:57;;;;;;;2.40;1.70;;;;;;;15.86;70.75;99370.91;233994;1199;138883;-62
2021/08/24 12:12:01;;;;;;;2.50;1.70;;;;;;;15.91;71.17;99381.64;234027;1199;138323;-63
2021/08/24 12:17:13;;;;;;;3.30;1.60;;;;;;;15.97;71.12;99398.14;233922;1201;138496;-63
2021/08/24 12:22:16;;;;;;;3.30;1.70;;;;;;;16.05;71.05;99400.21;233887;1201;139299;-64
2021/08/24 12:27:19;;;;;;;3.60;2.10;;;;;;;16.13;71.34;99409.94;234191;1199;138374;-63
2021/08/24 12:32:21;;;;;;;4.70;2.00;;;;;;;16.18;71.22;99416.33;234094;1199;138648;-64
2021/08/24 12:37:26;;;;;;;4.50;1.90;;;;;;;16.22;71.20;99421.63;233864;1201;138701;-63
2021/08/24 12:42:33;;;;;;;2.80;1.60;;;;;;;16.25;71.53;99428.34;233949;1201;138421;-63
2021/08/24 12:47:39;;;;;;;2.90;1.40;;;;;;;16.29;71.33;99436.79;233798;1201;139493;-63
2021/08/24 12:52:45;;;;;;;4.70;1.70;;;;;;;16.36;71.64;99440.88;233983;1200;138324;-63
2021/08/24 12:57:58;;;;;;;2.30;1.60;;;;;;;16.42;71.35;99445.61;233985;1201;138575;-64
2021/08/24 13:03:22;;;;;;;3.40;2.00;;;;;;;16.46;71.50;99450.52;233893;1200;138740;-64
2021/08/24 13:08:28;;;;;;;2.20;1.70;;;;;;;16.44;71.38;99459.42;233969;1201;138960;-63
2021/08/24 13:13:41;;;;;;;4.30;1.70;;;;;;;16.42;71.39;99467.98;233848;1201;139205;-64
2021/08/24 13:18:50;;;;;;;3.20;1.80;;;;;;;16.46;71.34;99470.23;234037;1201;139872;-64
2021/08/24 13:24:04;;;;;;;4.50;2.10;;;;;;;16.48;71.41;99478.04;233987;1200;138426;-62
2021/08/24 13:29:11;;;;;;;;;;;;;;;16.47;71.17;99483.36;233914;1201;138982;-63
2021/08/24 13:34:24;;;;;;;4.20;2.10;;;;;;;16.40;70.98;99484.61;234066;1201;125142;-63
2021/08/24 13:39:28;;;;;;;3.20;1.90;;;;;;;16.33;70.94;99488.39;233842;1201;138997;-62
2021/08/24 13:44:36;;;;;;;49.90;39.10;;;;;;;16.32;71.38;99497.74;233837;1200;139078;-62
2021/08/24 13:49:40;;;;;;;3.90;2.30;;;;;;;16.43;71.83;99503.58;233874;1201;139022;-61
2021/08/24 13:54:51;;;;;;;2.30;2.10;;;;;;;16.47;71.53;99512.14;233892;1201;137916;-64
2021/08/24 14:00:01;;;;;;;3.90;2.50;;;;;;;16.48;71.40;99518.94;233815;1200;138544;-62
2021/08/24 14:05:14;;;;;;;4.00;2.20;;;;;;;16.43;71.09;99520.02;233900;1198;138457;-63
2021/08/24 14:10:26;;;;;;;122.50;83.80;;;;;;;16.41;71.33;99523.21;234081;1200;139163;-62
2021/08/24 14:15:36;;;;;;;7.00;4.60;;;;;;;16.48;71.55;99521.96;233877;1200;140001;-64
2021/08/24 14:20:54;;;;;;;2.70;2.10;;;;;;;16.52;71.52;99523.96;233999;1201;139039;-64
2021/08/24 14:26:00;;;;;;;4.30;2.30;;;;;;;16.55;71.18;99531.27;234017;1199;137996;-64
2021/08/24 14:31:09;;;;;;;3.70;2.40;;;;;;;16.54;71.22;99531.18;233993;1201;138156;-63
2021/08/24 14:36:32;;;;;;;2.80;2.00;;;;;;;16.55;71.20;99537.52;233920;1200;139419;-65
2021/08/24 14:41:59;;;;;;;4.10;2.00;;;;;;;16.55;71.20;99538.27;233850;1199;139100;-65
2021/08/24 14:47:07;;;;;;;2.70;2.20;;;;;;;16.59;71.36;99547.11;234059;1198;138332;-66
2021/08/24 14:52:20;;;;;;;2.60;1.80;;;;;;;16.58;71.17;99550.75;234019;1200;138879;-65
2021/08/24 14:57:29;;;;;;;2.20;1.80;;;;;;;16.53;71.04;99564.89;233873;1200;138101;-64
2021/08/24 15:02:45;;;;;;;2.70;1.90;;;;;;;16.45;70.88;99570.17;233966;1201;138874;-64
2021/08/24 15:08:12;;;;;;;2.30;1.90;;;;;;;16.42;70.89;99578.02;233877;1199;138298;-63
2021/08/24 15:13:21;;;;;;;3.20;2.10;;;;;;;16.36;70.78;99576.43;233824;1201;138310;-62
2021/08/24 15:18:45;;;;;;;4.30;2.10;;;;;;;16.24;70.51;99581.27;233878;1200;137993;-65
2021/08/24 15:23:59;;;;;;;3.30;2.10;;;;;;;16.14;70.78;99585.27;233840;1200;138640;-62
2021/08/24 15:29:06;;;;;;;19.80;15.60;;;;;;;16.13;70.97;99587.55;233823;1200;139181;-63
2021/08/24 15:34:09;;;;;;;122.60;81.90;;;;;;;16.30;71.65;99591.24;234048;1198;138962;-63
2021/08/24 15:39:12;;;;;;;6.20;3.40;;;;;;;16.33;71.13;99586.27;233895;1199;138374;-63
2021/08/24 15:44:21;;;;;;;3.60;2.40;;;;;;;16.30;70.68;99595.01;234015;1199;139093;-61
2021/08/24 15:49:29;;;;;;;4.40;2.30;;;;;;;16.23;70.64;99597.52;233922;1200;137967;-61
2021/08/24 15:54:33;;;;;;;4.60;2.00;;;;;;;16.18;70.67;99596.98;233312;1201;139205;-64
2021/08/24 15:59:36;;;;;;;3.40;2.30;;;;;;;16.14;70.54;99599.64;233609;1200;138632;-59
2021/08/24 16:04:40;;;;;;;62.40;44.10;;;;;;;16.09;70.84;99599.63;233908;1200;138369;-61
2021/08/24 16:09:44;;;;;;;6.20;3.20;;;;;;;16.10;71.02;99601.01;233752;1200;138398;-62
2021/08/24 16:14:48;;;;;;;3.70;2.10;;;;;;;16.07;70.68;99597.65;233747;1200;137867;-62
2021/08/24 16:19:51;;;;;;;3.70;2.10;;;;;;;16.03;70.66;99599.54;233862;1200;140016;-61
2021/08/24 16:24:54;;;;;;;25.00;16.80;;;;;;;16.10;71.49;99600.66;232635;1200;139510;-61
2021/08/24 16:29:57;;;;;;;5.40;2.60;;;;;;;16.31;71.28;99604.71;233870;1200;139274;-61
2021/08/24 16:35:01;;;;;;;4.70;3.00;;;;;;;16.24;70.56;99614.09;233973;1199;138948;-62
2021/08/24 16:40:08;;;;;;;5.70;3.90;;;;;;;16.12;70.28;99619.08;234066;1199;139271;-61
2021/08/24 16:45:16;;;;;;;5.20;2.60;;;;;;;16.03;70.27;99618.49;233849;1200;139813;-63
2021/08/24 16:50:21;;;;;;;7.90;2.70;;;;;;;15.96;70.25;99622.30;233874;1200;139081;-62
2021/08/24 16:55:26;;;;;;;5.20;2.60;;;;;;;15.88;70.48;99626.66;233841;1200;138888;-64
2021/08/24 17:00:29;;;;;;;4.20;2.50;;;;;;;15.78;70.50;99628.41;233849;1200;138481;-63
2021/08/24 17:05:34;;;;;;;5.70;2.60;;;;;;;15.69;70.74;99621.57;233816;1200;139291;-62
2021/08/24 17:10:42;;;;;;;4.60;2.60;;;;;;;15.66;70.70;99623.81;233907;1200;138696;-62
2021/08/24 17:15:48;;;;;;;4.70;2.80;;;;;;;15.66;70.72;99620.59;234080;1199;138920;-65
2021/08/24 17:20:53;;;;;;;5.30;2.90;;;;;;;15.65;70.97;99628.32;233892;1200;137994;-63
2021/08/24 17:26:00;;;;;;;4.90;3.10;;;;;;;15.63;70.99;99627.59;233873;1200;138291;-62
2021/08/24 17:31:09;;;;;;;6.90;2.50;;;;;;;15.59;70.96;99623.96;233900;1200;139125;-63
2021/08/24 17:36:12;;;;;;;10.00;3.30;;;;;;;15.54;70.63;99627.50;233758;1200;139131;-62
2021/08/24 17:41:21;;;;;;;10.30;4.10;;;;;;;15.51;70.72;99631.13;233912;1199;143381;-62
2021/08/24 17:46:24;;;;;;;5.60;3.20;;;;;;;15.52;70.73;99629.45;234206;1199;138304;-61
2021/08/24 17:51:29;;;;;;;5.10;2.80;;;;;;;15.51;70.73;99629.73;233977;1199;138572;-62
2021/08/24 17:56:32;;;;;;;6.10;3.20;;;;;;;15.48;70.75;99632.38;233889;1200;138935;-63
2021/08/24 18:01:36;;;;;;;6.10;3.50;;;;;;;15.49;70.79;99636.47;233805;1200;140170;-63
2021/08/24 18:06:45;;;;;;;5.70;2.90;;;;;;;15.53;70.82;99639.02;233927;1200;138736;-66
2021/08/24 18:11:50;;;;;;;6.90;3.00;;;;;;;15.53;70.68;99642.83;233848;1198;138977;-64
2021/08/24 18:16:54;;;;;;;39.70;24.60;;;;;;;15.51;70.73;99649.55;233850;1200;140209;-63
2021/08/24 18:21:57;;;;;;;8.10;3.60;;;;;;;15.55;70.76;99655.51;234038;1200;138543;-62
2021/08/24 18:27:02;;;;;;;5.10;3.60;;;;;;;15.50;70.53;99663.25;233997;1200;138715;-62
2021/08/24 18:32:05;;;;;;;9.60;5.00;;;;;;;15.45;70.46;99665.41;233964;1199;138985;-62
2021/08/24 18:37:08;;;;;;;5.40;2.90;;;;;;;15.44;70.45;99667.23;234000;1199;141146;-62
2021/08/24 18:42:12;;;;;;;4.60;2.80;;;;;;;15.46;70.65;99666.20;233963;1197;140980;-63
2021/08/24 18:47:15;;;;;;;6.60;3.00;;;;;;;15.47;70.61;99664.53;233845;1199;138021;-62
2021/08/24 18:52:18;;;;;;;298.50;193.20;;;;;;;15.46;70.60;99664.45;234047;1197;138589;-61
2021/08/24 18:57:21;;;;;;;6.50;3.40;;;;;;;15.57;70.87;99672.50;233954;1200;139923;-62
2021/08/24 19:02:24;;;;;;;7.60;3.80;;;;;;;15.60;70.48;99672.82;233909;1200;140058;-60
2021/08/24 19:07:29;;;;;;;5.90;2.90;;;;;;;15.61;70.48;99668.33;234020;1199;138683;-63
2021/08/24 19:12:32;;;;;;;4.40;2.80;;;;;;;15.59;70.40;99670.23;233934;1199;138058;-62
2021/08/24 19:17:37;;;;;;;6.50;3.60;;;;;;;15.56;70.49;99669.72;233881;1197;138545;-59
2021/08/24 19:22:40;;;;;;;5.50;3.20;;;;;;;15.53;70.50;99671.55;233965;1200;139998;-62
2021/08/24 19:27:43;;;;;;;6.20;3.20;;;;;;;15.49;70.42;99666.70;234144;1199;139360;-62
2021/08/24 19:32:47;;;;;;;8.90;3.20;;;;;;;15.50;70.62;99664.98;233977;1198;139648;-61
2021/08/24 19:37:51;;;;;;;6.30;3.30;;;;;;;15.55;70.52;99670.00;234018;1200;139041;-62
2021/08/24 19:42:58;;;;;;;6.90;3.30;;;;;;;15.54;70.62;99668.14;233953;1198;138419;-62
2021/08/24 19:48:01;;;;;;;11.50;3.70;;;;;;;15.51;70.48;99663.10;233803;1200;138751;-63
2021/08/24 19:53:05;;;;;;;4.90;3.10;;;;;;;15.49;70.36;99664.88;233924;1197;139856;-63
2021/08/24 19:58:08;;;;;;;4.90;2.90;;;;;;;15.52;70.39;99667.36;234090;1199;138782;-62
2021/08/24 20:03:11;;;;;;;7.90;3.30;;;;;;;15.53;70.30;99665.02;233875;1199;138227;-64
2021/08/24 20:08:17;;;;;;;5.90;3.30;;;;;;;15.53;70.50;99666.06;233946;1200;138459;-62
2021/08/24 20:13:20;;;;;;;4.80;2.80;;;;;;;15.51;70.23;99661.93;233951;1199;137957;-62
2021/08/24 20:18:24;;;;;;;7.60;3.60;;;;;;;15.47;70.47;99660.41;233811;1200;140189;-64
2021/08/24 20:23:28;;;;;;;7.50;3.50;;;;;;;16.10;73.43;99662.91;233868;1200;210631;-63
2021/08/24 20:28:32;;;;;;;8.90;3.60;;;;;;;17.00;73.69;99651.73;234084;1200;138309;-62
2021/08/24 20:33:35;;;;;;;5.70;2.90;;;;;;;17.61;72.84;99650.27;233910;1200;138728;-63
2021/08/24 20:38:39;;;;;;;5.30;2.50;;;;;;;17.93;71.73;99650.23;233731;1200;139495;-63
2021/08/24 20:43:42;;;;;;;8.80;4.20;;;;;;;18.06;70.08;99652.70;233982;1200;138638;-65
2021/08/24 20:48:46;;;;;;;7.50;3.30;;;;;;;17.53;67.86;99651.13;233919;1200;139165;-64
2021/08/24 20:53:50;;;;;;;6.10;3.00;;;;;;;17.04;67.72;99645.66;233932;1198;139290;-62
2021/08/24 20:58:55;;;;;;;5.90;3.10;;;;;;;16.56;67.43;99647.48;233950;1201;138867;-64
2021/08/24 21:03:59;;;;;;;;;;;;;;;16.19;67.62;99653.11;234112;1199;139024;-63
2021/08/24 21:09:04;;;;;;;8.00;3.50;;;;;;;15.94;68.21;99655.77;233998;1200;125509;-65
2021/08/24 21:14:08;;;;;;;5.30;3.00;;;;;;;15.80;68.29;99653.13;233902;1200;138749;-65
2021/08/24 21:19:12;;;;;;;10.10;4.00;;;;;;;15.68;68.36;99647.23;233938;1201;138421;-62
2021/08/24 21:24:15;;;;;;;7.00;3.10;;;;;;;15.58;68.50;99650.09;233971;1201;138752;-63
2021/08/24 21:29:18;;;;;;;5.30;3.00;;;;;;;15.48;68.53;99650.31;233986;1200;138203;-62
2021/08/24 21:34:21;;;;;;;7.90;3.20;;;;;;;15.36;68.58;99647.21;234017;1200;138736;-63
2021/08/24 21:39:24;;;;;;;4.60;3.10;;;;;;;15.31;68.83;99645.09;233921;1200;139113;-63
2021/08/24 21:44:28;;;;;;;7.70;3.40;;;;;;;15.27;68.75;99643.59;233432;1201;138423;-65
2021/08/24 21:49:31;;;;;;;9.00;3.30;;;;;;;15.23;69.17;99652.80;233899;1201;139140;-58
2021/08/24 21:54:34;;;;;;;8.90;3.60;;;;;;;15.16;68.85;99651.21;233926;1201;137985;-60
2021/08/24 21:59:37;;;;;;;12.10;3.70;;;;;;;15.06;68.81;99648.64;233517;1199;138031;-59
2021/08/24 22:04:40;;;;;;;6.90;3.00;;;;;;;15.00;68.94;99647.68;232462;1201;139910;-61
2021/08/24 22:09:43;;;;;;;5.30;3.00;;;;;;;14.95;69.07;99646.25;232144;1198;139109;-63
2021/08/24 22:14:46;;;;;;;9.10;3.30;;;;;;;14.89;68.85;99640.40;232266;1200;139702;-61
2021/08/24 22:19:50;;;;;;;12.10;7.40;;;;;;;14.82;69.03;99639.41;233066;1200;142016;-60
2021/08/24 22:24:53;;;;;;;7.80;3.60;;;;;;;14.77;69.06;99638.55;233978;1201;138765;-61
2021/08/24 22:29:57;;;;;;;7.30;3.70;;;;;;;14.70;69.10;99643.30;233970;1199;138770;-60
2021/08/24 22:35:00;;;;;;;6.40;3.00;;;;;;;14.64;69.12;99632.52;233954;1201;140862;-61
2021/08/24 22:40:03;;;;;;;8.80;3.80;;;;;;;14.58;69.08;99634.66;233693;1201;138751;-61
2021/08/24 22:45:07;;;;;;;7.40;3.70;;;;;;;14.55;69.07;99627.75;233924;1201;138858;-60
2021/08/24 22:50:10;;;;;;;7.30;3.40;;;;;;;14.55;69.09;99626.16;233881;1200;138825;-61
2021/08/24 22:55:13;;;;;;;68.30;45.60;;;;;;;14.51;69.23;99623.73;233994;1200;140771;-62
2021/08/24 23:00:17;;;;;;;9.40;5.40;;;;;;;14.49;69.48;99622.98;233961;1201;138821;-62
2021/08/24 23:05:20;;;;;;;10.20;4.20;;;;;;;14.41;69.29;99621.36;233923;1201;137896;-61
2021/08/24 23:10:23;;;;;;;8.20;4.30;;;;;;;14.35;69.18;99613.91;234111;1200;139070;-60
2021/08/24 23:15:26;;;;;;;8.40;3.50;;;;;;;14.31;69.18;99616.17;233989;1201;139017;-61
2021/08/24 23:20:30;;;;;;;9.70;3.90;;;;;;;14.29;69.32;99618.83;233989;1201;138078;-60
2021/08/24 23:25:34;;;;;;;9.50;4.10;;;;;;;14.25;69.07;99612.12;233827;1201;138121;-59
2021/08/24 23:30:37;;;;;;;6.60;3.60;;;;;;;14.17;68.78;99608.02;233947;1200;137951;-61